Nearby METAR Reports

 

KLOT - Romeoville/Chi, Illinois, USA
Distance from station: N 3mi, 5km
Updated: Wed, 20-Jan-2021 12:35am CST
Overcast
Overcast
 Wind from NW
Wind: NW 16 mph , 26 km/h, Gust: 25 mph , 41 km/h
Temperature: 25°F , -4°C
Wind Chill: 12°F , -11°C
Dew Point: 19°F , -7°C
Humidity: 80%
Barometer: 30.20 inHg , 1022.7 hPa
Clouds: Overcast
Visibility: 10 miles , 16 km
Cloud details: Overcast 2200 ft
2021/01/20 06:35 KLOT 200635Z AUTO 31014G22KT 10SM OVC022 M04/M07 A3020 RMK AO2 T10411072
KJOT - Joliet, Illinois, USA
Distance from station: WSW 5mi, 7km
Updated: Wed, 20-Jan-2021 12:35am CST
Overcast
Overcast
 Wind from WNW
Wind: WNW 7 mph , 11 km/h, Gust: 17 mph , 28 km/h
Temperature: 27°F , -3°C
Wind Chill: 19°F , -7°C
Dew Point: 19°F , -7°C
Humidity: 74%
Barometer: 30.22 inHg , 1023.4 hPa
Clouds: Overcast
Visibility: 10 miles , 16 km
Cloud details: Overcast 3300 ft
2021/01/20 06:35 KJOT 200635Z AUTO 30006G15KT 10SM OVC033 M03/M07 A3022 RMK AO2 T10301074
 
KC09 - Morris-Washburn, Illinois, USA
Distance from station: WSW 18mi, 29km
Updated: Wed, 20-Jan-2021 12:35am CST
Overcast
Overcast
 Wind from NW
Wind: NW 18 mph , 30 km/h, Gust: 26 mph , 43 km/h
Temperature: 25°F , -4°C
Wind Chill: 11°F , -12°C
Dew Point: 18°F , -8°C
Humidity: 74%
Barometer: 30.21 inHg , 1023 hPa
Clouds: Overcast
Visibility: 10 miles , 16 km
Cloud details: Overcast 3200 ft
2021/01/20 06:35 KC09 200635Z AUTO 31016G23KT 10SM OVC032 M04/M08 A3021 RMK AO2 T10401079
KARR - Chicago/Aurora, Illinois, USA
Distance from station: NW 24mi, 39km
Updated: Wed, 20-Jan-2021 12:03am CST
Overcast
Overcast
 Wind from WNW
Wind: WNW 21 mph , 33 km/h
Temperature: 23°F , -5°C
Wind Chill: 8°F , -13°C
Dew Point: 16°F , -9°C
Humidity: 74%
Barometer: 30.18 inHg , 1022 hPa
Clouds: Overcast
Visibility: 10 miles , 16 km
Cloud details: Overcast 3000 ft
2021/01/20 06:03 KARR 200603Z AUTO 30018KT 10SM OVC030 M05/M09 A3018 RMK AO2 T10501089
 
KMDW - Chicago, Illinois, USA
Distance from station: NE 25mi, 39km
Updated: Tue, 19-Jan-2021 11:53pm CST
Light snow, Overcast
Light snow, Overcast
 Wind from NW
Wind: NW 17 mph , 28 km/h, Gust: 29 mph , 46 km/h
Temperature: 27°F , -3°C
Wind Chill: 14°F , -10°C
Dew Point: 16°F , -9°C
Humidity: 64%
Barometer: 30.17 inHg , 1021.7 hPa
Summary: Light Snow
Clouds: Overcast
Visibility: 10 miles , 16 km
Cloud details: Overcast 2500 ft
2021/01/20 05:53 KMDW 200553Z 31015G25KT 10SM -SN OVC025 M03/M09 A3017 RMK AO2 PK WND 33029/0516 SLP232 DRSN 4/001 P0000 60001 T10331089 10006 21033 400061067 52040
KDPA - Chicago/Dupage, Illinois, USA
Distance from station: NNW 26mi, 42km
Updated: Tue, 19-Jan-2021 11:52pm CST
Overcast
Overcast
 Wind from NW
Wind: NW 15 mph , 24 km/h, Gust: 24 mph , 39 km/h
Temperature: 25°F , -4°C
Wind Chill: 13°F , -11°C
Dew Point: 16°F , -9°C
Humidity: 69%
Barometer: 30.17 inHg , 1021.7 hPa
Clouds: Overcast
Visibility: 10 miles , 16 km
Cloud details: Overcast 2700 ft
2021/01/20 05:52 KDPA 200552Z 31013G21KT 10SM OVC027 M04/M09 A3017 RMK AO2 SLP229 60001 T10441089 10000 21044 400001100 51021
 
KIGQ - Chicago/Lansing, Illinois, USA
Distance from station: E 30mi, 48km
Updated: Wed, 20-Jan-2021 12:35am CST
Overcast
Overcast
 Wind from NW
Wind: NW 14 mph , 22 km/h, Gust: 21 mph , 33 km/h
Temperature: 27°F , -3°C
Wind Chill: 16°F , -9°C
Dew Point: 18°F , -8°C
Humidity: 69%
Barometer: 30.18 inHg , 1022 hPa
Clouds: Overcast
Visibility: 10 miles , 16 km
Cloud details: Mostly cloudy 2300 ft
Overcast 3200 ft
2021/01/20 06:35 KIGQ 200635Z AUTO 32012G18KT 10SM BKN023 OVC032 M03/M08 A3018 RMK AO2 T10311078
KORD - Chicago O'hare, Illinois, USA
Distance from station: NNE 31mi, 50km
Updated: Tue, 19-Jan-2021 11:51pm CST
Overcast
Overcast
 Wind from NW
Wind: NW 13 mph , 20 km/h
Temperature: 25°F , -4°C
Wind Chill: 13°F , -11°C
Dew Point: 18°F , -8°C
Humidity: 74%
Barometer: 30.17 inHg , 1021.7 hPa
Clouds: Overcast
Visibility: 10 miles , 16 km
Cloud details: Mostly cloudy 2400 ft
Overcast 2900 ft
2021/01/20 05:51 KORD 200551Z 31011KT 10SM BKN024 OVC029 M04/M08 A3017 RMK AO2 SLP225 DRSN 4/001 60004 T10391083 10000 21039 400001067 51044
 
KGYY - Gary Regional, Indiana, USA
Distance from station: E 36mi, 58km
Updated: Wed, 20-Jan-2021 12:35am CST
Overcast
Overcast
 Wind from NW
Wind: NW 16 mph , 26 km/h, Gust: 24 mph , 39 km/h
Temperature: 27°F , -3°C
Wind Chill: 15°F , -9°C
Dew Point: 19°F , -7°C
Humidity: 74%
Barometer: 30.18 inHg , 1022 hPa
Clouds: Overcast
Visibility: 10 miles , 16 km
Cloud details: Overcast 2500 ft
2021/01/20 06:35 KGYY 200635Z AUTO 32014G21KT 10SM OVC025 M03/M07 A3018 RMK AO2 T10311075
KIKK - Kankakee, Illinois, USA
Distance from station: SSE 36mi, 58km
Updated: Wed, 20-Jan-2021 12:35am CST
Overcast
Overcast
 Wind from NW
Wind: NW 14 mph , 22 km/h, Gust: 21 mph , 33 km/h
Temperature: 27°F , -3°C
Wind Chill: 16°F , -9°C
Dew Point: 19°F , -7°C
Humidity: 74%
Barometer: 30.21 inHg , 1023 hPa
Clouds: Overcast
Visibility: 10 miles , 16 km
Cloud details: Mostly cloudy 2500 ft
Overcast 3000 ft
2021/01/20 06:35 KIKK 200635Z AUTO 31012G18KT 10SM BKN025 OVC030 M03/M07 A3021 RMK AO2 T10331072
 
KDKB - De Kalb, Illinois, USA
Distance from station: NW 40mi, 65km
Updated: Wed, 20-Jan-2021 12:35am CST
Mostly cloudy
Mostly cloudy
 Wind from NW
Wind: NW 13 mph , 20 km/h, Gust: 22 mph , 35 km/h
Temperature: 19°F , -7°C
Wind Chill: 6°F , -14°C
Dew Point: 10°F , -12°C
Humidity: 68%
Barometer: 30.21 inHg , 1023 hPa
Clouds: Mostly cloudy
Visibility: 10 miles , 16 km
Cloud details: Mostly cloudy 2700 ft
2021/01/20 06:35 KDKB 200635Z AUTO 32011G19KT 10SM BKN027 M07/M12 A3021 RMK AO2 T10691117
KPWK - Palwaukee, Illinois, USA
Distance from station: NNE 41mi, 65km
Updated: Tue, 19-Jan-2021 11:52pm CST
Light snow, Overcast
Light snow, Overcast
 Wind from NW
Wind: NW 15 mph , 24 km/h
Temperature: 25°F , -4°C
Wind Chill: 13°F , -11°C
Dew Point: 18°F , -8°C
Humidity: 74%
Barometer: 30.18 inHg , 1022 hPa
Summary: Light Snow
Clouds: Overcast
Visibility: 6 miles , 10 km
Cloud details: Mostly cloudy 2500 ft
Overcast 3100 ft
2021/01/20 05:52 KPWK 200552Z AUTO 32013KT 6SM -SN BKN025 OVC031 M04/M08 A3018 RMK AO2 PK WND 32027/0504 SNB45 SLP229 P0000 60000 T10391083 11006 21039 410061061 51039